createdAt,value
2022-09-28T00:01:07.846Z,15.77
2022-09-28T00:03:36.114Z,18.80
2022-09-28T00:06:06.938Z,15.75
2022-09-28T00:08:35.911Z,12.82
2022-09-28T00:11:05.890Z,18.15
2022-09-28T00:13:34.130Z,12.15
2022-09-28T00:16:03.941Z,15.48
2022-09-28T00:18:32.557Z,15.45
2022-09-28T00:21:08.552Z,13.73
2022-09-28T00:23:57.688Z,11.95
2022-09-28T00:26:26.124Z,14.63
2022-09-28T00:28:54.940Z,12.95
2022-09-28T00:31:23.337Z,16.60
2022-09-28T00:33:51.826Z,15.15
2022-09-28T00:36:21.164Z,19.23
2022-09-28T00:38:49.108Z,14.93
2022-09-28T00:41:18.568Z,15.23
2022-09-28T00:43:46.343Z,16.33
2022-09-28T00:46:19.665Z,15.73
2022-09-28T00:48:53.886Z,14.80
2022-09-28T00:51:26.315Z,14.27
2022-09-28T00:53:56.202Z,14.55
2022-09-28T00:56:28.177Z,12.65
2022-09-28T00:58:56.386Z,12.20
2022-09-28T01:01:24.218Z,12.50
2022-09-28T01:03:52.182Z,10.70
2022-09-28T01:06:22.346Z,12.63
2022-09-28T01:08:54.463Z,15.73
2022-09-28T01:11:22.415Z,13.13
2022-09-28T01:13:54.103Z,13.00
2022-09-28T01:16:34.631Z,12.35
2022-09-28T01:19:17.354Z,14.35
2022-09-28T01:21:53.441Z,16.88
2022-09-28T01:24:40.229Z,14.00
2022-09-28T01:27:16.625Z,12.07
2022-09-28T01:29:52.440Z,13.10
2022-09-28T01:32:29.922Z,12.93
2022-09-28T01:35:01.360Z,12.52
2022-09-28T01:37:35.146Z,12.80
2022-09-28T01:40:04.843Z,13.55
2022-09-28T01:42:37.878Z,17.33
2022-09-28T01:45:14.613Z,14.95
2022-09-28T01:47:44.283Z,15.18
2022-09-28T01:50:15.611Z,11.07
2022-09-28T01:52:51.320Z,13.90
2022-09-28T01:55:27.312Z,16.33
2022-09-28T01:58:01.492Z,12.85
2022-09-28T02:00:29.654Z,12.18
2022-09-28T02:03:02.943Z,12.95
2022-09-28T02:05:34.045Z,19.02
2022-09-28T02:08:07.966Z,13.45
2022-09-28T02:10:42.902Z,16.27
2022-09-28T02:13:17.403Z,15.05
2022-09-28T02:15:51.602Z,11.48
2022-09-28T02:18:19.678Z,19.35
2022-09-28T02:21:06.212Z,16.33
2022-09-28T02:23:38.309Z,13.90
2022-09-28T02:26:10.150Z,15.15
2022-09-28T02:28:39.488Z,16.52
2022-09-28T02:31:07.543Z,15.55
2022-09-28T02:33:38.771Z,16.58
2022-09-28T02:36:07.534Z,13.15
2022-09-28T02:38:35.484Z,17.80
2022-09-28T02:41:07.066Z,14.32
2022-09-28T02:43:51.205Z,16.80
2022-09-28T02:46:29.653Z,18.70
2022-09-28T02:49:21.290Z,14.35
2022-09-28T02:52:06.240Z,12.90
2022-09-28T02:54:59.019Z,18.90
2022-09-28T02:57:38.432Z,10.95
2022-09-28T03:00:10.652Z,17.33
2022-09-28T03:02:49.843Z,13.98
2022-09-28T03:05:23.090Z,17.35
2022-09-28T03:07:58.795Z,12.85
2022-09-28T03:10:33.752Z,13.60
2022-09-28T03:13:02.801Z,12.95
2022-09-28T03:15:33.099Z,12.57
2022-09-28T03:18:01.395Z,14.38
2022-09-28T03:20:30.922Z,17.75
2022-09-28T03:25:46.827Z,12.80
2022-09-28T03:28:14.609Z,12.13
2022-09-28T03:30:44.035Z,18.45
2022-09-28T03:33:11.835Z,18.83
2022-09-28T03:35:39.694Z,15.88
2022-09-28T03:38:07.585Z,13.02
2022-09-28T03:40:35.424Z,14.90
2022-09-28T03:43:03.222Z,13.90
2022-09-28T03:45:31.100Z,12.30
2022-09-28T03:48:00.379Z,13.27
2022-09-28T03:50:28.472Z,12.80
2022-09-28T03:52:56.259Z,13.55
2022-09-28T03:55:24.085Z,16.52
2022-09-28T03:57:56.025Z,14.00
2022-09-28T04:00:24.210Z,14.05
2022-09-28T04:02:52.034Z,10.63
2022-09-28T04:05:21.278Z,9.65
2022-09-28T04:07:49.080Z,17.98
2022-09-28T04:10:17.353Z,15.55
2022-09-28T04:12:45.958Z,11.82
2022-09-28T04:15:13.939Z,9.68
2022-09-28T04:17:41.731Z,13.43
2022-09-28T04:20:10.258Z,14.98
2022-09-28T04:22:39.813Z,9.65
2022-09-28T04:25:07.964Z,12.97
2022-09-28T04:27:53.319Z,15.43
2022-09-28T04:30:21.898Z,10.02
2022-09-28T04:32:49.978Z,12.10
2022-09-28T04:35:17.846Z,11.55
2022-09-28T04:37:47.019Z,8.98
2022-09-28T04:40:15.119Z,12.90
2022-09-28T04:42:43.015Z,11.15
2022-09-28T04:45:11.803Z,13.88
2022-09-28T04:47:39.666Z,8.32
2022-09-28T04:50:08.500Z,13.63
2022-09-28T04:52:37.579Z,9.25
2022-09-28T04:55:07.963Z,13.90
2022-09-28T04:57:36.000Z,8.13
2022-09-28T05:00:04.459Z,12.98
2022-09-28T05:02:32.570Z,14.68
2022-09-28T05:05:00.940Z,9.82
2022-09-28T05:07:28.810Z,9.30
2022-09-28T05:09:56.617Z,14.70
2022-09-28T05:12:26.471Z,10.00
2022-09-28T05:14:54.296Z,9.82
2022-09-28T05:17:22.108Z,8.93
2022-09-28T05:19:52.771Z,10.70
2022-09-28T05:22:20.624Z,11.52
2022-09-28T05:24:48.427Z,9.50
2022-09-28T05:27:16.262Z,11.38
2022-09-28T05:29:45.451Z,10.00
2022-09-28T05:32:13.307Z,7.55
2022-09-28T05:34:41.103Z,12.20
2022-09-28T05:37:08.912Z,9.32
2022-09-28T05:39:36.731Z,7.55
2022-09-28T05:42:04.832Z,10.80
2022-09-28T05:44:32.713Z,9.60
2022-09-28T05:47:01.890Z,6.05
2022-09-28T05:49:31.779Z,7.38
2022-09-28T05:51:59.585Z,8.43
2022-09-28T05:54:27.394Z,7.75
2022-09-28T05:56:55.238Z,8.38
2022-09-28T05:59:23.047Z,7.15
2022-09-28T06:01:50.856Z,6.78
2022-09-28T06:04:20.962Z,6.85
2022-09-28T06:06:48.794Z,7.07
2022-09-28T06:09:16.599Z,8.80
2022-09-28T06:11:44.435Z,12.30
2022-09-28T06:14:13.783Z,4.40
2022-09-28T06:16:43.824Z,8.60
2022-09-28T06:19:12.942Z,5.47
2022-09-28T06:21:42.210Z,6.25
2022-09-28T06:24:10.091Z,6.38
2022-09-28T06:26:37.972Z,7.72
2022-09-28T06:29:05.835Z,5.43
2022-09-28T06:31:33.719Z,5.97
2022-09-28T06:34:02.103Z,3.75
2022-09-28T06:36:31.410Z,6.60
2022-09-28T06:39:00.739Z,9.70
2022-09-28T06:41:28.654Z,6.68
2022-09-28T06:43:56.451Z,7.15
2022-09-28T06:46:24.448Z,5.85
2022-09-28T06:48:52.784Z,7.25
2022-09-28T06:51:20.602Z,5.30
2022-09-28T06:53:48.403Z,4.72
2022-09-28T06:56:18.199Z,5.00
2022-09-28T06:58:46.010Z,7.57
2022-09-28T07:01:13.878Z,6.47
2022-09-28T07:03:41.807Z,4.10
2022-09-28T07:06:12.652Z,5.15
2022-09-28T07:08:40.847Z,4.53
2022-09-28T07:11:09.996Z,5.85
2022-09-28T07:13:50.933Z,4.60
2022-09-28T07:16:24.088Z,8.02
2022-09-28T07:18:54.434Z,5.15
2022-09-28T07:21:29.869Z,3.67
2022-09-28T07:23:58.246Z,10.98
2022-09-28T07:26:26.903Z,4.10
2022-09-28T07:28:56.319Z,3.55
2022-09-28T07:31:25.523Z,4.15
2022-09-28T07:33:54.130Z,3.85
2022-09-28T07:36:22.850Z,3.53
2022-09-28T07:38:50.919Z,7.03
2022-09-28T07:41:21.806Z,3.45
2022-09-28T07:43:50.201Z,4.82
2022-09-28T07:46:20.664Z,4.07
2022-09-28T07:48:49.712Z,3.45
2022-09-28T07:51:19.798Z,3.83
2022-09-28T07:53:48.106Z,7.32
2022-09-28T07:56:17.466Z,4.75
2022-09-28T07:58:45.262Z,3.85
2022-09-28T08:01:15.022Z,3.47
2022-09-28T08:03:47.218Z,4.00
2022-09-28T08:06:17.139Z,5.22
2022-09-28T08:08:45.582Z,3.90
2022-09-28T08:11:14.375Z,2.80
2022-09-28T08:13:42.535Z,4.90
2022-09-28T08:16:11.260Z,4.53
2022-09-28T08:18:39.101Z,5.10
2022-09-28T08:21:25.558Z,4.93
2022-09-28T08:23:54.038Z,4.07
2022-09-28T08:26:21.859Z,3.33
2022-09-28T08:28:50.162Z,1.98
2022-09-28T08:31:18.115Z,4.70
2022-09-28T08:33:45.983Z,2.30
2022-09-28T08:36:15.572Z,3.38
2022-09-28T08:38:43.595Z,6.50
2022-09-28T08:41:20.024Z,1.63
2022-09-28T08:44:04.614Z,4.07
2022-09-28T08:46:41.205Z,2.28
2022-09-28T08:49:24.917Z,3.13
2022-09-28T08:51:59.525Z,4.90
2022-09-28T08:54:35.049Z,4.63
2022-09-28T08:57:06.657Z,1.48
2022-09-28T08:59:46.691Z,9.00
2022-09-28T09:02:19.468Z,2.80
2022-09-28T09:04:47.513Z,4.53
2022-09-28T09:07:33.102Z,4.30
2022-09-28T09:10:09.183Z,2.92
2022-09-28T09:12:49.561Z,1.92
2022-09-28T09:15:31.927Z,5.50
2022-09-28T09:18:16.633Z,4.60
2022-09-28T09:20:51.787Z,5.97
2022-09-28T09:23:31.461Z,6.03
2022-09-28T09:26:04.802Z,1.80
2022-09-28T09:29:02.251Z,4.03
2022-09-28T09:31:48.918Z,2.85
2022-09-28T09:34:35.343Z,8.13
2022-09-28T09:37:18.467Z,1.75
2022-09-28T09:40:03.119Z,2.95
2022-09-28T09:42:49.126Z,1.48
2022-09-28T09:45:32.346Z,3.50
2022-09-28T09:48:04.795Z,4.03
2022-09-28T09:50:39.931Z,5.10
2022-09-28T09:53:21.059Z,1.52
2022-09-28T09:55:57.243Z,2.33
2022-09-28T09:58:29.756Z,3.10
2022-09-28T10:01:08.388Z,4.38
2022-09-28T10:03:40.784Z,4.38
2022-09-28T10:06:13.925Z,2.85
2022-09-28T10:08:45.423Z,4.13
2022-09-28T10:11:19.106Z,3.42
2022-09-28T10:13:49.285Z,2.33
2022-09-28T10:16:19.342Z,1.63
2022-09-28T10:18:47.386Z,4.40
2022-09-28T10:21:15.591Z,5.35
2022-09-28T10:23:44.519Z,3.00
2022-09-28T10:26:25.325Z,2.05
2022-09-28T10:28:56.737Z,3.47
2022-09-28T10:31:42.050Z,1.48
2022-09-28T10:34:14.200Z,4.28
2022-09-28T10:36:52.105Z,3.30
2022-09-28T10:39:32.918Z,2.53
2022-09-28T10:42:04.650Z,2.63
2022-09-28T10:44:35.328Z,2.75
2022-09-28T10:47:08.024Z,2.25
2022-09-28T10:49:47.101Z,3.05
2022-09-28T10:52:35.179Z,2.15
2022-09-28T10:55:23.671Z,4.03
2022-09-28T10:57:53.117Z,1.25
2022-09-28T11:00:36.510Z,3.75
2022-09-28T11:03:05.231Z,2.67
2022-09-28T11:05:33.505Z,4.00
2022-09-28T11:08:08.282Z,3.30
2022-09-28T11:10:36.192Z,2.67
2022-09-28T11:13:10.510Z,2.10
2022-09-28T11:15:44.103Z,2.53
2022-09-28T11:18:26.562Z,1.70
2022-09-28T11:21:11.962Z,1.30
2022-09-28T11:23:42.163Z,1.83
2022-09-28T11:26:17.637Z,5.85
2022-09-28T11:28:52.890Z,3.85
2022-09-28T11:31:28.136Z,2.38
2022-09-28T11:34:14.574Z,2.03
2022-09-28T11:37:01.876Z,4.07
2022-09-28T11:39:39.871Z,1.45
2022-09-28T11:42:18.690Z,2.22
2022-09-28T11:44:49.399Z,3.13
2022-09-28T11:47:38.775Z,2.65
2022-09-28T11:50:18.955Z,3.42
2022-09-28T11:52:56.746Z,2.08
2022-09-28T11:55:33.146Z,2.35
2022-09-28T11:58:06.150Z,3.00
2022-09-28T12:00:43.167Z,3.65
2022-09-28T12:03:17.287Z,2.10
2022-09-28T12:05:50.425Z,1.67
2022-09-28T12:08:25.443Z,2.40
2022-09-28T12:10:58.875Z,1.73
2022-09-28T12:13:29.686Z,2.17
2022-09-28T12:16:32.656Z,1.95
2022-09-28T12:21:37.848Z,5.07
2022-09-28T12:24:14.991Z,4.95
2022-09-28T12:26:48.710Z,1.52
2022-09-28T12:29:22.050Z,2.92
2022-09-28T12:32:07.112Z,1.50
2022-09-28T12:34:35.037Z,3.22
2022-09-28T12:37:16.815Z,2.95
2022-09-28T12:40:00.185Z,2.75
2022-09-28T12:42:53.020Z,4.65
2022-09-28T12:46:09.744Z,3.13
2022-09-28T12:51:59.668Z,1.70
2022-09-28T12:54:42.087Z,3.28
2022-09-28T12:57:30.994Z,3.38
2022-09-28T13:00:04.907Z,2.97
2022-09-28T13:03:00.815Z,3.15
2022-09-28T13:05:46.945Z,2.33
2022-09-28T13:08:22.156Z,5.88
2022-09-28T13:11:06.912Z,2.28
2022-09-28T13:13:45.362Z,1.40
2022-09-28T13:16:21.488Z,2.80
2022-09-28T13:18:58.188Z,3.45
2022-09-28T13:21:35.662Z,6.07
2022-09-28T13:24:20.898Z,3.53
2022-09-28T13:29:24.512Z,2.58
2022-09-28T13:31:55.746Z,4.68
2022-09-28T13:34:26.716Z,2.42
2022-09-28T13:37:24.801Z,1.83
2022-09-28T13:39:55.281Z,2.78
2022-09-28T13:45:27.919Z,3.22
2022-09-28T13:48:14.039Z,2.40
2022-09-28T13:51:15.614Z,3.88
2022-09-28T13:54:08.047Z,3.65
2022-09-28T13:56:44.216Z,2.65
2022-09-28T13:59:23.133Z,5.13
2022-09-28T14:01:57.413Z,2.08
2022-09-28T14:04:47.703Z,1.63
2022-09-28T14:07:21.497Z,3.90
2022-09-28T14:10:16.857Z,4.97
2022-09-28T14:12:47.340Z,1.70
2022-09-28T14:18:25.028Z,2.25
2022-09-28T14:21:06.756Z,2.28
2022-09-28T14:23:59.956Z,2.65
2022-09-28T14:27:11.239Z,1.48
2022-09-28T14:29:40.103Z,2.75
2022-09-28T14:32:23.806Z,2.42
2022-09-28T14:34:57.931Z,3.40
2022-09-28T14:37:47.167Z,1.77
2022-09-28T14:40:40.679Z,4.88
2022-09-28T14:43:27.415Z,3.88
2022-09-28T14:46:33.901Z,2.58
2022-09-28T14:49:03.692Z,2.20
2022-09-28T14:52:03.236Z,6.32
2022-09-28T14:54:41.729Z,4.30
2022-09-28T14:57:18.311Z,3.90
2022-09-28T14:59:48.324Z,1.85
2022-09-28T15:02:22.775Z,3.15
2022-09-28T15:04:54.643Z,2.25
2022-09-28T15:07:25.091Z,5.80
2022-09-28T15:09:54.647Z,1.98
2022-09-28T15:12:26.192Z,2.87
2022-09-28T15:15:02.197Z,3.13
2022-09-28T15:17:37.006Z,6.35
2022-09-28T15:20:23.802Z,2.65
2022-09-28T15:22:55.047Z,3.60
2022-09-28T15:25:26.105Z,2.22
2022-09-28T15:27:55.455Z,1.65
2022-09-28T15:30:27.659Z,2.25
2022-09-28T15:33:17.693Z,2.53
2022-09-28T15:35:47.726Z,4.75
2022-09-28T15:38:18.257Z,4.95
2022-09-28T15:43:33.134Z,2.67
2022-09-28T15:46:07.558Z,4.88
2022-09-28T15:48:42.072Z,2.42
2022-09-28T15:51:12.066Z,3.67
2022-09-28T15:53:44.931Z,2.22
2022-09-28T15:56:13.054Z,3.95
2022-09-28T15:58:40.969Z,4.97
2022-09-28T16:01:37.895Z,3.95
2022-09-28T16:04:38.355Z,3.70
2022-09-28T16:07:24.303Z,3.90
2022-09-28T16:10:00.067Z,2.45
2022-09-28T16:12:32.123Z,2.58
2022-09-28T16:15:05.214Z,4.13
2022-09-28T16:17:36.453Z,2.40
2022-09-28T16:20:19.690Z,2.08
2022-09-28T16:22:47.915Z,4.32
2022-09-28T16:25:22.086Z,5.50
2022-09-28T16:27:49.942Z,3.53
2022-09-28T16:30:24.431Z,2.58
2022-09-28T16:32:58.573Z,3.00
2022-09-28T16:35:29.187Z,2.90
2022-09-28T16:38:00.671Z,6.45
2022-09-28T16:40:29.531Z,3.45
2022-09-28T16:43:02.948Z,3.63
2022-09-28T16:45:31.004Z,4.75
2022-09-28T16:48:00.479Z,4.95
2022-09-28T16:50:28.746Z,4.85
2022-09-28T16:53:45.165Z,2.95
2022-09-28T16:56:13.914Z,4.35
2022-09-28T16:58:42.434Z,3.70
2022-09-28T17:01:12.971Z,5.80
2022-09-28T17:03:46.636Z,4.18
2022-09-28T17:06:16.060Z,4.13
2022-09-28T17:08:44.742Z,7.05
2022-09-28T17:11:20.180Z,5.40
2022-09-28T17:13:51.908Z,4.65
2022-09-28T17:16:32.568Z,3.90
2022-09-28T17:19:13.984Z,5.65
2022-09-28T17:21:41.915Z,3.03
2022-09-28T17:24:09.725Z,4.13
2022-09-28T17:26:37.548Z,5.57
2022-09-28T17:29:08.751Z,4.93
2022-09-28T17:31:36.571Z,5.40
2022-09-28T17:34:04.396Z,6.75
2022-09-28T17:36:33.622Z,3.67
2022-09-28T17:39:01.552Z,5.55
2022-09-28T17:41:29.367Z,5.63
2022-09-28T17:43:57.209Z,6.80
2022-09-28T17:46:29.391Z,4.18
2022-09-28T17:48:59.457Z,6.70
2022-09-28T17:51:28.522Z,12.98
2022-09-28T17:53:58.299Z,21.42
2022-09-28T17:56:31.627Z,20.63
2022-09-28T17:59:01.350Z,6.05
2022-09-28T18:01:33.959Z,6.20
2022-09-28T18:04:02.818Z,7.95
2022-09-28T18:06:32.206Z,5.22
2022-09-28T18:09:01.867Z,5.65
2022-09-28T18:11:29.909Z,5.45
2022-09-28T18:13:57.763Z,8.70
2022-09-28T18:16:27.899Z,6.55
2022-09-28T18:18:55.947Z,9.85
2022-09-28T18:21:23.726Z,10.93
2022-09-28T18:23:52.055Z,6.53
2022-09-28T18:26:21.280Z,10.07
2022-09-28T18:28:49.148Z,11.07
2022-09-28T18:31:19.127Z,8.02
2022-09-28T18:33:48.317Z,5.18
2022-09-28T18:36:16.131Z,7.93
2022-09-28T18:38:43.941Z,5.38
2022-09-28T18:41:15.694Z,7.03
2022-09-28T18:43:49.957Z,7.25
2022-09-28T18:46:19.030Z,5.45
2022-09-28T18:48:47.757Z,8.98
2022-09-28T18:51:15.985Z,5.25
2022-09-28T18:53:43.815Z,8.13
2022-09-28T18:56:13.184Z,12.38
2022-09-28T18:58:42.746Z,5.80
2022-09-28T19:01:31.362Z,8.40
2022-09-28T19:04:01.254Z,7.15
2022-09-28T19:06:29.833Z,6.03
2022-09-28T19:08:58.834Z,5.85
2022-09-28T19:11:26.907Z,6.88
2022-09-28T19:13:55.981Z,9.68
2022-09-28T19:16:26.798Z,5.50
2022-09-28T19:18:54.787Z,7.13
2022-09-28T19:21:22.760Z,5.75
2022-09-28T19:23:50.758Z,6.55
2022-09-28T19:26:21.464Z,10.35
2022-09-28T19:28:49.644Z,4.70
2022-09-28T19:31:18.404Z,5.15
2022-09-28T19:33:48.236Z,5.53
2022-09-28T19:36:18.479Z,6.60
2022-09-28T19:38:47.107Z,13.13
2022-09-28T19:41:39.517Z,6.28
2022-09-28T19:44:13.507Z,7.95
2022-09-28T19:46:41.636Z,11.25
2022-09-28T19:49:19.366Z,5.93
2022-09-28T19:52:11.504Z,9.00
2022-09-28T19:54:37.630Z,8.38
2022-09-28T19:57:07.723Z,9.88
2022-09-28T19:59:36.595Z,4.88
2022-09-28T20:02:05.103Z,5.72
2022-09-28T20:04:34.710Z,5.13
2022-09-28T20:07:02.671Z,5.53
2022-09-28T20:09:30.650Z,5.88
2022-09-28T20:11:58.438Z,5.60
2022-09-28T20:14:31.814Z,8.43
2022-09-28T20:17:02.191Z,9.25
2022-09-28T20:19:29.978Z,8.75
2022-09-28T20:22:02.727Z,6.90
2022-09-28T20:24:31.291Z,11.25
2022-09-28T20:27:00.682Z,11.98
2022-09-28T20:29:28.482Z,10.23
2022-09-28T20:31:56.746Z,8.98
2022-09-28T20:34:24.607Z,6.05
2022-09-28T20:36:52.406Z,10.57
2022-09-28T20:39:21.638Z,8.45
2022-09-28T20:41:49.545Z,7.55
2022-09-28T20:44:17.547Z,9.05
2022-09-28T20:46:45.531Z,8.75
2022-09-28T20:49:13.385Z,12.02
2022-09-28T20:51:41.190Z,10.02
2022-09-28T20:54:09.323Z,13.23
2022-09-28T20:56:38.977Z,9.65
2022-09-28T20:59:09.691Z,11.48
2022-09-28T21:01:37.579Z,9.77
2022-09-28T21:04:06.790Z,6.90
2022-09-28T21:06:36.308Z,10.30
2022-09-28T21:09:05.417Z,8.20
2022-09-28T21:11:35.591Z,9.98
2022-09-28T21:14:06.850Z,8.45
2022-09-28T21:16:36.462Z,10.85
2022-09-28T21:19:04.925Z,11.00
2022-09-28T21:21:32.766Z,9.93
2022-09-28T21:24:00.679Z,9.43
2022-09-28T21:26:30.335Z,8.10
2022-09-28T21:29:00.283Z,11.60
2022-09-28T21:31:32.708Z,14.77
2022-09-28T21:34:00.886Z,12.50
2022-09-28T21:36:28.675Z,16.60
2022-09-28T21:38:56.551Z,9.68
2022-09-28T21:41:24.875Z,7.95
2022-09-28T21:43:52.714Z,10.32
2022-09-28T21:46:20.658Z,8.43
2022-09-28T21:48:54.310Z,12.80
2022-09-28T21:51:22.601Z,6.57
2022-09-28T21:53:50.433Z,7.90
2022-09-28T21:56:18.796Z,7.00
2022-09-28T21:58:46.703Z,7.07
2022-09-28T22:01:18.151Z,9.60
2022-09-28T22:03:48.595Z,8.43
2022-09-28T22:06:19.418Z,9.02
2022-09-28T22:08:48.427Z,7.90
2022-09-28T22:11:18.660Z,9.65
2022-09-28T22:13:48.366Z,8.15
2022-09-28T22:16:18.089Z,7.82
2022-09-28T22:18:46.646Z,7.63
2022-09-28T22:21:16.174Z,6.88
2022-09-28T22:23:45.472Z,9.27
2022-09-28T22:26:18.004Z,6.25
2022-09-28T22:28:47.941Z,10.25
2022-09-28T22:31:16.493Z,7.40
2022-09-28T22:33:44.947Z,8.98
2022-09-28T22:36:15.012Z,7.35
2022-09-28T22:38:43.408Z,7.22
2022-09-28T22:41:13.634Z,10.50
2022-09-28T22:43:41.519Z,8.55
2022-09-28T22:46:12.005Z,6.43
2022-09-28T22:48:40.201Z,8.27
2022-09-28T22:51:08.302Z,7.38
2022-09-28T22:53:36.895Z,5.15
2022-09-28T22:56:06.992Z,7.55
2022-09-28T22:58:37.505Z,6.15
2022-09-28T23:01:09.395Z,7.35
2022-09-28T23:03:40.122Z,12.95
2022-09-28T23:06:08.545Z,6.65
2022-09-28T23:08:37.082Z,6.32
2022-09-28T23:11:05.350Z,12.27
2022-09-28T23:13:33.857Z,7.57
2022-09-28T23:16:05.141Z,7.43
2022-09-28T23:18:34.631Z,6.90
2022-09-28T23:21:04.413Z,7.38
2022-09-28T23:23:32.793Z,8.85
2022-09-28T23:26:02.033Z,12.65
2022-09-28T23:28:30.475Z,7.13
2022-09-28T23:31:10.832Z,9.63
2022-09-28T23:36:07.222Z,12.35
2022-09-28T23:38:35.537Z,7.85
2022-09-28T23:41:03.384Z,9.90
2022-09-28T23:43:31.223Z,9.18
2022-09-28T23:45:59.055Z,13.18
2022-09-28T23:48:28.246Z,6.72
2022-09-28T23:50:56.089Z,10.82
2022-09-28T23:53:23.917Z,7.82
2022-09-28T23:55:51.828Z,7.55
2022-09-28T23:58:19.865Z,7.70
